Time;durP1;ratioP1;P1;durP2;ratioP2;P2;SDS_P1;SDS_P2;PMS_P1;PMS_P2;Temp;Humidity;BMP_temperature;BMP_pressure;BME280_temperature;BME280_humidity;BME280_pressure;Samples;Min_cycle;Max_cycle;Signal;HPM_P1;HPM_P2
2021/12/10 00:02:09;;;;;;;;;;;5.30;99.90;;;;;;5074553;28;20333;-75
2021/12/10 00:04:36;;;;;;;;;;;5.30;99.90;;;;;;5068984;28;19974;-75
2021/12/10 00:07:21;;;;;;;;;;;5.30;99.90;;;;;;5060597;28;19918;-75
2021/12/10 00:09:52;;;;;;;;;;;5.30;99.90;;;;;;5074457;28;20344;-75
2021/12/10 00:12:19;;;;;;;;;;;5.30;99.90;;;;;;5070942;28;19916;-75
2021/12/10 00:14:45;;;;;;;;;;;5.40;99.90;;;;;;5075416;28;19920;-75
2021/12/10 00:17:12;;;;;;;;;;;5.40;99.90;;;;;;5072404;28;20292;-75
2021/12/10 00:19:44;;;;;;;;;;;5.40;99.90;;;;;;5079260;28;21333;-75
2021/12/10 00:22:36;;;;;;;;;;;5.30;99.90;;;;;;5075667;28;20584;-75
2021/12/10 00:25:02;;;;;;;;;;;5.40;99.90;;;;;;5074571;28;19908;-75
2021/12/10 00:27:29;;;;;;;;;;;5.40;99.90;;;;;;5080797;28;19912;-75
2021/12/10 00:30:04;;;;;;;;;;;5.40;99.90;;;;;;5074641;28;19985;-75
2021/12/10 00:32:35;;;;;;;;;;;5.40;99.90;;;;;;5074583;28;19916;-75
2021/12/10 00:35:05;;;;;;;;;;;5.40;99.90;;;;;;5078056;28;20675;-75
2021/12/10 00:37:30;;;;;;;;;;;5.50;99.90;;;;;;5079901;28;20087;-76
2021/12/10 00:39:57;;;;;;;;;;;5.40;99.90;;;;;;5076314;28;20258;-75
2021/12/10 00:42:26;;;;;;;;;;;5.40;99.90;;;;;;5080553;28;20007;-76
2021/12/10 00:44:52;;;;;;;;;;;5.40;99.90;;;;;;5078110;28;20256;-75
2021/12/10 00:47:18;;;;;;;;;;;5.50;99.90;;;;;;5072392;28;19945;-75
2021/12/10 00:49:44;;;;;;;;;;;5.40;99.90;;;;;;5079672;28;19919;-75
2021/12/10 00:52:10;;;;;;;;;;;5.40;99.90;;;;;;5062243;28;19920;-75
2021/12/10 00:54:36;;;;;;;;;;;5.40;99.90;;;;;;5064580;28;19961;-75
2021/12/10 00:57:02;;;;;;;;;;;5.40;99.90;;;;;;5067166;28;20420;-75
2021/12/10 00:59:28;;;;;;;;;;;5.30;99.90;;;;;;5066696;28;19931;-75
2021/12/10 01:01:54;;;;;;;;;;;5.30;99.90;;;;;;5060441;28;20360;-75
2021/12/10 01:04:22;;;;;;;;;;;5.30;99.90;;;;;;5059617;28;19994;-75
2021/12/10 01:06:49;;;;;;;;;;;5.30;99.90;;;;;;5074930;28;19932;-75
2021/12/10 01:09:16;;;;;;;;;;;5.30;99.90;;;;;;5063303;28;19948;-76
2021/12/10 01:11:47;;;;;;;;;;;5.30;99.90;;;;;;5073787;28;20334;-75
2021/12/10 01:14:21;;;;;;;;;;;5.20;99.90;;;;;;5069238;28;20288;-75
2021/12/10 01:25:08;;;;;;;;;;;5.20;99.90;;;;;;5076425;28;19915;-76
2021/12/10 01:27:35;;;;;;;;;;;5.20;99.90;;;;;;5072008;28;19909;-75
2021/12/10 01:30:21;;;;;;;;;;;5.20;99.90;;;;;;5082172;28;20012;-75
2021/12/10 01:32:49;;;;;;;;;;;5.10;99.90;;;;;;5080245;28;20446;-75
2021/12/10 01:35:16;;;;;;;;;;;5.10;99.90;;;;;;5081266;28;20001;-76
2021/12/10 01:37:42;;;;;;;;;;;5.20;99.90;;;;;;5071299;28;19916;-75
2021/12/10 01:40:08;;;;;;;;;;;5.10;99.90;;;;;;5079147;28;19909;-75
2021/12/10 01:42:42;;;;;;;;;;;5.20;99.90;;;;;;5067956;28;19916;-75
2021/12/10 01:45:17;;;;;;;;;;;5.10;99.90;;;;;;5070990;28;19939;-75
2021/12/10 01:47:45;;;;;;;;;;;5.10;99.90;;;;;;5079945;28;19922;-75
2021/12/10 01:50:10;;;;;;;;;;;5.10;99.90;;;;;;5076214;28;19920;-75
2021/12/10 01:52:36;;;;;;;;;;;5.10;99.90;;;;;;5079074;28;19909;-75
2021/12/10 01:55:04;;;;;;;;;;;5.10;99.90;;;;;;5077603;28;19912;-75
2021/12/10 01:57:30;;;;;;;;;;;5.10;99.90;;;;;;5078518;28;19977;-75
2021/12/10 01:59:56;;;;;;;;;;;5.10;99.90;;;;;;5077153;28;20394;-75
2021/12/10 02:02:27;;;;;;;;;;;5.10;99.90;;;;;;5063334;28;19917;-75
2021/12/10 02:04:52;;;;;;;;;;;5.10;99.90;;;;;;5070354;28;19916;-75
2021/12/10 02:07:21;;;;;;;;;;;5.10;99.90;;;;;;5080199;28;19911;-75
2021/12/10 02:09:48;;;;;;;;;;;5.10;99.90;;;;;;5074365;28;19915;-75
2021/12/10 02:12:15;;;;;;;;;;;5.00;99.90;;;;;;5076573;28;19927;-75
2021/12/10 02:14:42;;;;;;;;;;;5.00;99.90;;;;;;5077649;28;20391;-76
2021/12/10 02:17:07;;;;;;;;;;;5.00;99.90;;;;;;5076713;28;19912;-75
2021/12/10 02:19:34;;;;;;;;;;;5.00;99.90;;;;;;5080380;28;19912;-75
2021/12/10 02:22:02;;;;;;;;;;;5.00;99.90;;;;;;5074823;28;19999;-75
2021/12/10 02:24:27;;;;;;;;;;;5.00;99.90;;;;;;5076021;28;19952;-75
2021/12/10 02:26:55;;;;;;;;;;;5.00;99.90;;;;;;5074960;28;19948;-75
2021/12/10 02:29:21;;;;;;;;;;;5.00;99.90;;;;;;5077997;28;19987;-75
2021/12/10 02:31:47;;;;;;;;;;;4.90;99.90;;;;;;5077066;28;20006;-75
2021/12/10 02:34:13;;;;;;;;;;;4.90;99.90;;;;;;5070737;28;19916;-75
2021/12/10 02:36:42;;;;;;;;;;;4.90;99.90;;;;;;5066599;28;19966;-75
2021/12/10 02:39:13;;;;;;;;;;;5.00;99.90;;;;;;5077675;28;19907;-75
2021/12/10 02:41:39;;;;;;;;;;;4.90;99.90;;;;;;5068973;28;20368;-75
2021/12/10 02:44:06;;;;;;;;;;;4.90;99.90;;;;;;5077239;28;19944;-74
2021/12/10 02:46:32;;;;;;;;;;;4.90;99.90;;;;;;5076466;28;19916;-75
2021/12/10 02:48:57;;;;;;;;;;;4.90;99.90;;;;;;5071482;28;19935;-75
2021/12/10 02:51:23;;;;;;;;;;;4.80;99.90;;;;;;5071197;28;19920;-75
2021/12/10 02:53:49;;;;;;;;;;;4.80;99.90;;;;;;5081603;28;19916;-75
2021/12/10 02:56:17;;;;;;;;;;;4.80;99.90;;;;;;5080070;28;19986;-75
2021/12/10 02:58:43;;;;;;;;;;;4.80;99.90;;;;;;5071349;28;20356;-74
2021/12/10 03:01:32;;;;;;;;;;;4.80;99.90;;;;;;5075346;28;19911;-75
2021/12/10 03:03:59;;;;;;;;;;;4.80;99.90;;;;;;5071922;28;19912;-75
2021/12/10 03:06:25;;;;;;;;;;;4.90;99.90;;;;;;5078691;28;19946;-75
2021/12/10 03:08:53;;;;;;;;;;;4.90;99.90;;;;;;5070646;28;20426;-74
2021/12/10 03:11:21;;;;;;;;;;;4.90;99.90;;;;;;5078444;28;19916;-75
2021/12/10 03:13:47;;;;;;;;;;;5.00;99.90;;;;;;5080104;28;19916;-75
2021/12/10 03:16:14;;;;;;;;;;;5.00;99.90;;;;;;5080457;28;19908;-74
2021/12/10 03:18:39;;;;;;;;;;;4.90;99.90;;;;;;5077484;28;19916;-75
2021/12/10 03:21:09;;;;;;;;;;;4.90;99.90;;;;;;5077628;28;19964;-75
2021/12/10 03:23:37;;;;;;;;;;;5.00;99.90;;;;;;5079081;28;19912;-75
2021/12/10 03:26:03;;;;;;;;;;;5.00;99.90;;;;;;5079301;28;19924;-75
2021/12/10 03:28:28;;;;;;;;;;;5.10;99.90;;;;;;5081308;28;19904;-74
2021/12/10 03:30:55;;;;;;;;;;;5.10;99.90;;;;;;5080108;28;19917;-75
2021/12/10 03:33:20;;;;;;;;;;;5.10;99.90;;;;;;5078383;28;19948;-74
2021/12/10 03:35:47;;;;;;;;;;;5.00;99.90;;;;;;5078431;28;20424;-75
2021/12/10 03:38:17;;;;;;;;;;;5.10;99.90;;;;;;5073429;28;19995;-75
2021/12/10 03:40:43;;;;;;;;;;;5.10;99.90;;;;;;5064734;28;20368;-75
2021/12/10 03:43:12;;;;;;;;;;;5.10;99.90;;;;;;5065476;28;20004;-75
2021/12/10 03:45:40;;;;;;;;;;;5.20;99.90;;;;;;5064901;28;19909;-75
2021/12/10 03:48:08;;;;;;;;;;;5.20;99.90;;;;;;5059147;28;19996;-75
2021/12/10 03:50:33;;;;;;;;;;;5.20;99.90;;;;;;5062573;28;19974;-75
2021/12/10 03:52:59;;;;;;;;;;;5.20;99.90;;;;;;5063948;28;19957;-75
2021/12/10 03:55:25;;;;;;;;;;;5.20;99.90;;;;;;5073414;28;19999;-75
2021/12/10 03:57:52;;;;;;;;;;;5.20;99.90;;;;;;5068654;28;19927;-75
2021/12/10 04:00:19;;;;;;;;;;;5.20;99.90;;;;;;5078116;28;19961;-75
2021/12/10 04:02:45;;;;;;;;;;;5.20;99.90;;;;;;5078770;28;19915;-75
2021/12/10 04:05:10;;;;;;;;;;;5.20;99.90;;;;;;5082036;28;19905;-76
2021/12/10 04:07:36;;;;;;;;;;;5.20;99.90;;;;;;5080582;28;19909;-75
2021/12/10 04:10:03;;;;;;;;;;;5.20;99.90;;;;;;5068909;28;20299;-75
2021/12/10 04:12:29;;;;;;;;;;;5.20;99.90;;;;;;5071812;28;19998;-75
2021/12/10 04:14:54;;;;;;;;;;;5.20;99.90;;;;;;5072175;28;20406;-75
2021/12/10 04:17:21;;;;;;;;;;;5.30;99.90;;;;;;5077122;28;19951;-75
2021/12/10 04:19:49;;;;;;;;;;;5.20;99.90;;;;;;5076192;28;19912;-75
2021/12/10 04:22:16;;;;;;;;;;;5.20;99.90;;;;;;5080486;28;19954;-75
2021/12/10 04:24:42;;;;;;;;;;;5.20;99.90;;;;;;5076072;28;19908;-75
2021/12/10 04:27:09;;;;;;;;;;;5.20;99.90;;;;;;5077554;28;19931;-75
2021/12/10 04:29:35;;;;;;;;;;;5.10;99.90;;;;;;5079051;28;20359;-75
2021/12/10 04:32:00;;;;;;;;;;;5.10;99.90;;;;;;5074227;28;19908;-75
2021/12/10 04:34:27;;;;;;;;;;;5.10;99.90;;;;;;5076946;28;19995;-76
2021/12/10 04:36:54;;;;;;;;;;;5.10;99.90;;;;;;5080045;28;19981;-76
2021/12/10 04:39:20;;;;;;;;;;;5.20;99.90;;;;;;5077878;28;19961;-76
2021/12/10 04:41:46;;;;;;;;;;;5.20;99.90;;;;;;5075291;28;19912;-76
2021/12/10 04:44:12;;;;;;;;;;;5.20;99.90;;;;;;5077808;28;19912;-75
2021/12/10 04:46:37;;;;;;;;;;;5.10;99.90;;;;;;5077012;28;19919;-75
2021/12/10 04:49:05;;;;;;;;;;;5.20;99.90;;;;;;5078836;28;19920;-75
2021/12/10 04:51:34;;;;;;;;;;;5.20;99.90;;;;;;5075943;28;20031;-75
2021/12/10 04:54:00;;;;;;;;;;;5.20;99.90;;;;;;5080753;28;19947;-76
2021/12/10 04:56:26;;;;;;;;;;;5.20;99.90;;;;;;5071975;28;19997;-77
2021/12/10 04:58:52;;;;;;;;;;;5.30;99.90;;;;;;5070017;28;19919;-78
2021/12/10 05:01:18;;;;;;;;;;;5.20;99.90;;;;;;5048779;28;19908;-77
2021/12/10 05:03:43;;;;;;;;;;;5.20;99.90;;;;;;5069744;28;19995;-77
2021/12/10 05:06:09;;;;;;;;;;;5.20;99.90;;;;;;5067124;28;19950;-77
2021/12/10 05:08:36;;;;;;;;;;;5.20;99.90;;;;;;5066964;28;19951;-77
2021/12/10 05:11:02;;;;;;;;;;;5.20;99.90;;;;;;5068995;28;19923;-76
2021/12/10 05:13:28;;;;;;;;;;;5.20;99.90;;;;;;5069081;28;19955;-77
2021/12/10 05:15:58;;;;;;;;;;;5.10;99.90;;;;;;5065947;28;19940;-77
2021/12/10 05:18:25;;;;;;;;;;;5.20;99.90;;;;;;5064981;28;19962;-77
2021/12/10 05:20:51;;;;;;;;;;;5.10;99.90;;;;;;5071467;28;19912;-78
2021/12/10 05:23:16;;;;;;;;;;;5.20;99.90;;;;;;5070139;28;19920;-77
2021/12/10 05:25:43;;;;;;;;;;;5.30;99.90;;;;;;5066450;28;19916;-78
2021/12/10 05:28:09;;;;;;;;;;;5.20;99.90;;;;;;5068529;28;19921;-78
2021/12/10 05:30:34;;;;;;;;;;;5.20;99.90;;;;;;5064995;28;20017;-79
2021/12/10 05:33:01;;;;;;;;;;;5.20;99.90;;;;;;5061167;28;19920;-77
2021/12/10 05:35:27;;;;;;;;;;;5.20;99.90;;;;;;5066513;28;19987;-77
2021/12/10 05:37:53;;;;;;;;;;;5.20;99.90;;;;;;5068931;28;19909;-78
2021/12/10 05:40:20;;;;;;;;;;;5.30;99.90;;;;;;5068219;28;20374;-78
2021/12/10 05:42:46;;;;;;;;;;;5.30;99.90;;;;;;5066824;28;20356;-78
2021/12/10 05:45:12;;;;;;;;;;;5.30;99.90;;;;;;5069240;28;20041;-78
2021/12/10 05:47:38;;;;;;;;;;;5.30;99.90;;;;;;5066632;28;19935;-75
2021/12/10 05:50:06;;;;;;;;;;;5.30;99.90;;;;;;5068679;28;20268;-75
2021/12/10 05:52:32;;;;;;;;;;;5.30;99.90;;;;;;5066487;28;19923;-75
2021/12/10 05:54:57;;;;;;;;;;;5.40;99.90;;;;;;5064241;28;19905;-76
2021/12/10 05:57:23;;;;;;;;;;;5.30;99.90;;;;;;5068074;28;19908;-75
2021/12/10 05:59:48;;;;;;;;;;;5.30;99.90;;;;;;5067808;28;19905;-75
2021/12/10 06:02:14;;;;;;;;;;;5.40;99.90;;;;;;5070727;28;19908;-76
2021/12/10 06:04:39;;;;;;;;;;;5.40;99.90;;;;;;5067572;28;19912;-75
2021/12/10 06:07:05;;;;;;;;;;;5.40;99.90;;;;;;5074930;28;19908;-75
2021/12/10 06:09:31;;;;;;;;;;;5.40;99.90;;;;;;5068560;28;19950;-76
2021/12/10 06:11:57;;;;;;;;;;;5.40;99.90;;;;;;5067837;28;20002;-75
2021/12/10 06:14:23;;;;;;;;;;;5.40;99.90;;;;;;5069582;28;20409;-75
2021/12/10 06:16:52;;;;;;;;;;;5.40;99.90;;;;;;5070739;28;19912;-75
2021/12/10 06:19:18;;;;;;;;;;;5.40;99.90;;;;;;5073246;28;19955;-75
2021/12/10 06:21:44;;;;;;;;;;;5.40;99.90;;;;;;5067025;28;20299;-75
2021/12/10 06:24:09;;;;;;;;;;;5.50;99.90;;;;;;5067071;28;20006;-76
2021/12/10 06:26:35;;;;;;;;;;;5.40;99.90;;;;;;5067013;28;19920;-75
2021/12/10 06:29:01;;;;;;;;;;;5.40;99.90;;;;;;5071375;28;19911;-75
2021/12/10 06:31:27;;;;;;;;;;;5.40;99.90;;;;;;5073562;28;19965;-75
2021/12/10 06:33:52;;;;;;;;;;;5.30;99.90;;;;;;5070657;28;19912;-75
2021/12/10 06:36:19;;;;;;;;;;;5.30;99.90;;;;;;5063712;28;19948;-76
2021/12/10 06:38:45;;;;;;;;;;;5.30;99.90;;;;;;5066429;28;19905;-76
2021/12/10 06:41:11;;;;;;;;;;;5.30;99.90;;;;;;5070376;28;19905;-76
2021/12/10 06:43:37;;;;;;;;;;;5.30;99.90;;;;;;5074644;28;19905;-75
2021/12/10 06:46:04;;;;;;;;;;;5.40;99.90;;;;;;5069236;28;20292;-75
2021/12/10 06:48:30;;;;;;;;;;;5.60;99.90;;;;;;5065764;28;19909;-75
2021/12/10 06:50:57;;;;;;;;;;;5.60;99.90;;;;;;5068437;28;19951;-75
2021/12/10 06:53:23;;;;;;;;;;;5.50;99.90;;;;;;5066161;28;19920;-75
2021/12/10 06:55:49;;;;;;;;;;;5.50;99.90;;;;;;5071001;28;19912;-76
2021/12/10 06:58:15;;;;;;;;;;;5.50;99.90;;;;;;5069453;28;20033;-75
2021/12/10 07:00:47;;;;;;;;;;;5.40;99.90;;;;;;5073916;28;19959;-75
2021/12/10 07:03:14;;;;;;;;;;;5.40;99.90;;;;;;5067138;28;19935;-76
2021/12/10 07:05:39;;;;;;;;;;;5.40;99.90;;;;;;5072287;28;19952;-75
2021/12/10 07:08:06;;;;;;;;;;;5.40;99.90;;;;;;5068983;28;20471;-75
2021/12/10 07:10:32;;;;;;;;;;;5.40;99.90;;;;;;5068517;28;19999;-76
2021/12/10 07:12:58;;;;;;;;;;;5.30;99.90;;;;;;5072796;28;19954;-75
2021/12/10 07:15:23;;;;;;;;;;;5.30;99.90;;;;;;5070421;28;19912;-75
2021/12/10 07:17:50;;;;;;;;;;;5.40;99.90;;;;;;5070673;28;19919;-76
2021/12/10 07:20:17;;;;;;;;;;;5.50;99.90;;;;;;5070997;28;19912;-75
2021/12/10 07:22:42;;;;;;;;;;;5.50;99.90;;;;;;5069538;28;19962;-76
2021/12/10 07:25:09;;;;;;;;;;;5.50;99.90;;;;;;5072016;28;19904;-75
2021/12/10 07:27:35;;;;;;;;;;;5.50;99.90;;;;;;5059094;28;19920;-75
2021/12/10 07:30:00;;;;;;;;;;;5.40;99.90;;;;;;5067232;28;19916;-76
2021/12/10 07:32:26;;;;;;;;;;;5.40;99.90;;;;;;5066995;28;19915;-76
2021/12/10 07:34:52;;;;;;;;;;;5.30;99.90;;;;;;5062878;28;19916;-76
2021/12/10 07:37:17;;;;;;;;;;;5.30;99.90;;;;;;5068874;28;19919;-75
2021/12/10 07:39:43;;;;;;;;;;;5.30;99.90;;;;;;5068049;28;20057;-76
2021/12/10 07:42:09;;;;;;;;;;;5.40;99.90;;;;;;5062747;28;19939;-76
2021/12/10 07:44:35;;;;;;;;;;;5.40;99.90;;;;;;5062929;28;20349;-77
2021/12/10 07:47:03;;;;;;;;;;;5.30;99.90;;;;;;5071194;28;20014;-76
2021/12/10 07:49:31;;;;;;;;;;;5.30;99.90;;;;;;5065242;28;19952;-77
2021/12/10 07:51:57;;;;;;;;;;;5.30;99.90;;;;;;5063567;28;19967;-78
2021/12/10 07:54:23;;;;;;;;;;;5.30;99.90;;;;;;5063642;28;19912;-77
2021/12/10 07:56:49;;;;;;;;;;;5.20;99.90;;;;;;5063151;28;19919;-77
2021/12/10 07:59:14;;;;;;;;;;;5.20;99.90;;;;;;5070934;28;19917;-77
2021/12/10 08:01:40;;;;;;;;;;;5.10;99.90;;;;;;5068184;28;19909;-77
2021/12/10 08:04:06;;;;;;;;;;;5.20;99.90;;;;;;5061969;28;20349;-76
2021/12/10 08:06:32;;;;;;;;;;;5.20;99.90;;;;;;5061486;28;19909;-75
2021/12/10 08:08:58;;;;;;;;;;;5.30;99.90;;;;;;5062323;28;19911;-75
2021/12/10 08:11:24;;;;;;;;;;;5.20;99.90;;;;;;5062458;28;19917;-76
2021/12/10 08:13:50;;;;;;;;;;;5.30;99.90;;;;;;5068254;28;20323;-76
2021/12/10 08:16:16;;;;;;;;;;;5.30;99.90;;;;;;5068591;28;19909;-75
2021/12/10 08:18:41;;;;;;;;;;;5.30;99.90;;;;;;5068408;28;19913;-76
2021/12/10 08:21:07;;;;;;;;;;;5.40;99.90;;;;;;5067100;28;19916;-76
2021/12/10 08:23:35;;;;;;;;;;;5.40;99.90;;;;;;5066507;28;20373;-78
2021/12/10 08:26:01;;;;;;;;;;;5.50;99.90;;;;;;5069236;28;19964;-79
2021/12/10 08:28:27;;;;;;;;;;;5.40;99.90;;;;;;5069506;28;19916;-80
2021/12/10 08:30:54;;;;;;;;;;;5.60;99.90;;;;;;5065203;28;19916;-79
2021/12/10 08:33:19;;;;;;;;;;;5.60;99.90;;;;;;5066338;28;19916;-79
2021/12/10 08:35:47;;;;;;;;;;;5.60;99.90;;;;;;5062624;28;19908;-78
2021/12/10 08:38:12;;;;;;;;;;;5.50;99.90;;;;;;5069506;28;19961;-79
2021/12/10 08:40:41;;;;;;;;;;;5.50;99.90;;;;;;5066470;28;20357;-79
2021/12/10 08:43:06;;;;;;;;;;;5.50;99.90;;;;;;5066244;28;19916;-78
2021/12/10 08:45:32;;;;;;;;;;;5.40;99.90;;;;;;5070347;28;19912;-79
2021/12/10 08:47:59;;;;;;;;;;;5.30;99.90;;;;;;5068087;28;19915;-79
2021/12/10 08:50:26;;;;;;;;;;;5.40;99.90;;;;;;5065199;28;19916;-80
2021/12/10 08:53:18;;;;;;;;;;;5.40;99.90;;;;;;5099775;27;19945;-79
2021/12/10 08:55:50;;;;;;;;;;;5.50;99.90;;;;;;5091677;28;19992;-80
2021/12/10 08:58:18;;;;;;;;;;;5.50;99.90;;;;;;5089703;28;19959;-79
2021/12/10 09:00:46;;;;;;;;;;;5.50;99.90;;;;;;5077567;28;19912;-79
2021/12/10 09:03:12;;;;;;;;;;;5.50;99.90;;;;;;5087791;28;20018;-78
2021/12/10 09:05:39;;;;;;;;;;;5.60;99.90;;;;;;5084535;28;19912;-79
2021/12/10 09:08:05;;;;;;;;;;;5.60;99.90;;;;;;5092711;28;19915;-80
2021/12/10 09:10:39;;;;;;;;;;;5.60;99.90;;;;;;5089233;28;19915;-80
2021/12/10 09:13:10;;;;;;;;;;;5.60;99.90;;;;;;5083871;28;19916;-80
2021/12/10 09:15:38;;;;;;;;;;;5.60;99.90;;;;;;5094467;28;19912;-79
2021/12/10 09:18:07;;;;;;;;;;;5.60;99.90;;;;;;5091413;28;19940;-78
2021/12/10 09:20:36;;;;;;;;;;;5.70;99.90;;;;;;5092772;28;21268;-77
2021/12/10 09:23:02;;;;;;;;;;;5.70;99.90;;;;;;5074436;28;20923;-78
2021/12/10 09:25:29;;;;;;;;;;;5.70;99.90;;;;;;5070419;28;19913;-78
2021/12/10 09:27:55;;;;;;;;;;;5.70;99.90;;;;;;5069791;28;20011;-80
2021/12/10 09:30:22;;;;;;;;;;;5.80;99.90;;;;;;5074905;28;19909;-78
2021/12/10 09:32:50;;;;;;;;;;;5.80;99.90;;;;;;5103911;28;19970;-80
2021/12/10 09:35:18;;;;;;;;;;;5.70;99.90;;;;;;5104623;28;19916;-79
2021/12/10 09:37:47;;;;;;;;;;;5.70;99.90;;;;;;5079627;28;19920;-80
2021/12/10 09:40:16;;;;;;;;;;;5.80;99.90;;;;;;5071700;28;19919;-79
2021/12/10 09:42:42;;;;;;;;;;;5.80;99.90;;;;;;5084364;28;19909;-79
2021/12/10 09:45:10;;;;;;;;;;;5.80;99.90;;;;;;5079169;28;19999;-80
2021/12/10 09:47:37;;;;;;;;;;;5.90;99.90;;;;;;5071276;28;19919;-80
2021/12/10 09:50:04;;;;;;;;;;;5.90;99.90;;;;;;5070294;28;19912;-80
2021/12/10 09:52:30;;;;;;;;;;;5.80;99.90;;;;;;5089900;28;19931;-79
2021/12/10 09:54:56;;;;;;;;;;;5.80;99.90;;;;;;5097757;28;19913;-80
2021/12/10 09:57:29;;;;;;;;;;;5.90;99.90;;;;;;5068240;28;19931;-79
2021/12/10 09:59:56;;;;;;;;;;;5.90;99.90;;;;;;5071867;28;19975;-80
2021/12/10 10:02:25;;;;;;;;;;;5.80;99.90;;;;;;5087731;28;20057;-80
2021/12/10 10:04:53;;;;;;;;;;;5.90;99.90;;;;;;5078817;28;19915;-80
2021/12/10 10:07:24;;;;;;;;;;;5.90;99.90;;;;;;5076274;28;19959;-79
2021/12/10 10:09:51;;;;;;;;;;;6.00;99.90;;;;;;5077963;28;19912;-80
2021/12/10 10:12:19;;;;;;;;;;;6.00;99.90;;;;;;5079519;28;19939;-80
2021/12/10 10:14:45;;;;;;;;;;;6.00;99.90;;;;;;5074793;28;20335;-79
2021/12/10 10:17:11;;;;;;;;;;;5.90;99.90;;;;;;5072905;28;20568;-78
2021/12/10 10:19:38;;;;;;;;;;;5.80;99.90;;;;;;5054993;28;19914;-80
2021/12/10 10:22:05;;;;;;;;;;;5.90;99.90;;;;;;5066233;28;19916;-80
2021/12/10 10:24:33;;;;;;;;;;;6.00;99.90;;;;;;5063736;28;20000;-79
2021/12/10 10:27:03;;;;;;;;;;;6.20;99.90;;;;;;5061158;28;19912;-80
2021/12/10 10:29:32;;;;;;;;;;;6.10;99.90;;;;;;5058902;28;20368;-80
2021/12/10 10:32:06;;;;;;;;;;;6.10;99.90;;;;;;5059071;28;20288;-80
2021/12/10 10:34:33;;;;;;;;;;;6.20;99.90;;;;;;5074163;28;19942;-80
2021/12/10 10:36:59;;;;;;;;;;;6.20;99.90;;;;;;5057309;28;20010;-80
2021/12/10 10:39:34;;;;;;;;;;;6.20;99.90;;;;;;5054008;28;19912;-80
2021/12/10 10:42:02;;;;;;;;;;;6.10;99.90;;;;;;5095194;28;19964;-80
2021/12/10 10:44:30;;;;;;;;;;;6.20;99.90;;;;;;5076429;28;20417;-80
2021/12/10 10:47:00;;;;;;;;;;;6.10;99.90;;;;;;5074312;28;19913;-80
2021/12/10 10:49:38;;;;;;;;;;;6.20;99.90;;;;;;5089702;28;19917;-80
2021/12/10 10:52:19;;;;;;;;;;;6.20;99.90;;;;;;5081652;28;19927;-80
2021/12/10 10:54:46;;;;;;;;;;;6.10;99.90;;;;;;5051065;28;19912;-80
2021/12/10 10:57:26;;;;;;;;;;;6.20;99.90;;;;;;5085570;28;20335;-80
2021/12/10 10:59:56;;;;;;;;;;;6.20;99.90;;;;;;5070888;28;19909;-80
2021/12/10 11:02:49;;;;;;;;;;;6.20;99.90;;;;;;5057523;28;20265;-80
2021/12/10 11:05:23;;;;;;;;;;;6.20;99.90;;;;;;5070473;28;20431;-80
2021/12/10 11:07:52;;;;;;;;;;;6.30;99.90;;;;;;5086012;28;19912;-80
2021/12/10 11:10:29;;;;;;;;;;;6.30;99.90;;;;;;5074080;28;19909;-80
2021/12/10 11:13:20;;;;;;;;;;;6.40;99.90;;;;;;5056508;28;19920;-79
2021/12/10 11:16:06;;;;;;;;;;;6.40;99.90;;;;;;5071045;28;19935;-80
2021/12/10 11:18:48;;;;;;;;;;;6.30;99.90;;;;;;5080953;28;19999;-80
2021/12/10 11:21:15;;;;;;;;;;;6.20;99.90;;;;;;5048497;28;19913;-80
2021/12/10 11:23:42;;;;;;;;;;;6.20;99.90;;;;;;5045369;28;19969;-80
2021/12/10 11:26:08;;;;;;;;;;;6.20;99.90;;;;;;5060159;28;19915;-80
2021/12/10 11:28:38;;;;;;;;;;;6.10;99.90;;;;;;5068305;28;20007;-80
2021/12/10 11:31:07;;;;;;;;;;;6.20;99.90;;;;;;5078483;28;20364;-80
2021/12/10 11:33:50;;;;;;;;;;;6.20;99.90;;;;;;5049317;28;20030;-79
2021/12/10 11:36:18;;;;;;;;;;;6.20;99.90;;;;;;5053040;28;19920;-80
2021/12/10 11:38:49;;;;;;;;;;;6.30;99.90;;;;;;5056228;28;19909;-80
2021/12/10 11:41:18;;;;;;;;;;;6.40;99.90;;;;;;5073282;28;19916;-80
2021/12/10 11:44:26;;;;;;;;;;;6.40;99.90;;;;;;5066291;28;19916;-80
2021/12/10 11:49:40;;;;;;;;;;;6.30;99.90;;;;;;5071803;28;19920;-79
2021/12/10 11:52:08;;;;;;;;;;;6.30;99.90;;;;;;5073328;28;19921;-79
2021/12/10 11:54:38;;;;;;;;;;;6.20;99.90;;;;;;5055232;28;19923;-79
2021/12/10 11:57:14;;;;;;;;;;;6.30;99.90;;;;;;5073962;28;20505;-79
2021/12/10 11:59:41;;;;;;;;;;;6.40;99.90;;;;;;5072405;28;19982;-79
2021/12/10 12:02:12;;;;;;;;;;;6.30;99.90;;;;;;5047466;28;19913;-79
2021/12/10 12:04:48;;;;;;;;;;;6.30;99.90;;;;;;5076059;28;19943;-79
2021/12/10 12:07:30;;;;;;;;;;;6.30;99.90;;;;;;5055817;28;19921;-79
2021/12/10 12:10:12;;;;;;;;;;;6.40;99.90;;;;;;5058604;28;19982;-79
2021/12/10 12:12:40;;;;;;;;;;;6.40;99.90;;;;;;5072220;28;19966;-79
2021/12/10 12:15:27;;;;;;;;;;;6.40;99.90;;;;;;5077290;28;19985;-79
2021/12/10 12:18:04;;;;;;;;;;;6.40;99.90;;;;;;5069581;28;19942;-80
2021/12/10 12:20:38;;;;;;;;;;;6.40;99.90;;;;;;5050928;28;20308;-79
2021/12/10 12:26:00;;;;;;;;;;;6.40;99.90;;;;;;5066338;28;20673;-79
2021/12/10 12:28:28;;;;;;;;;;;6.50;99.90;;;;;;5088345;28;19991;-79
2021/12/10 12:30:56;;;;;;;;;;;6.60;99.90;;;;;;5069935;28;19931;-79
2021/12/10 12:33:26;;;;;;;;;;;6.50;99.90;;;;;;5063711;28;19916;-79
2021/12/10 12:35:55;;;;;;;;;;;6.60;99.90;;;;;;5054748;28;19915;-79
2021/12/10 12:38:27;;;;;;;;;;;6.60;99.90;;;;;;5058486;28;20331;-79
2021/12/10 12:41:08;;;;;;;;;;;6.60;99.90;;;;;;5051975;28;19909;-79
2021/12/10 12:43:35;;;;;;;;;;;6.50;99.90;;;;;;5072372;28;19930;-79
2021/12/10 12:46:05;;;;;;;;;;;6.50;99.90;;;;;;5071329;28;19908;-79
2021/12/10 12:48:37;;;;;;;;;;;6.50;99.90;;;;;;5065934;28;20365;-79
2021/12/10 12:51:19;;;;;;;;;;;6.50;99.90;;;;;;5041174;28;19912;-79
2021/12/10 12:53:45;;;;;;;;;;;6.60;99.90;;;;;;5084893;28;19916;-79
2021/12/10 12:56:13;;;;;;;;;;;6.60;99.90;;;;;;5069821;28;20646;-79
2021/12/10 12:58:39;;;;;;;;;;;6.60;99.90;;;;;;5055013;28;20003;-79
2021/12/10 13:01:09;;;;;;;;;;;6.50;99.90;;;;;;5062654;28;19924;-79
2021/12/10 13:03:41;;;;;;;;;;;6.60;99.90;;;;;;5068588;28;19913;-80
2021/12/10 13:06:30;;;;;;;;;;;6.60;99.90;;;;;;5055217;28;19916;-80
2021/12/10 13:09:09;;;;;;;;;;;6.50;99.90;;;;;;5034750;28;20041;-79
2021/12/10 13:11:57;;;;;;;;;;;6.50;99.90;;;;;;5066530;28;19913;-80
2021/12/10 13:14:31;;;;;;;;;;;6.40;99.90;;;;;;5058040;28;19955;-79
2021/12/10 13:16:59;;;;;;;;;;;6.40;99.90;;;;;;5058432;28;20359;-79
2021/12/10 13:19:29;;;;;;;;;;;6.50;99.90;;;;;;5059136;28;19917;-79
2021/12/10 13:21:59;;;;;;;;;;;6.40;99.90;;;;;;5078272;28;19951;-79
2021/12/10 13:24:25;;;;;;;;;;;6.30;99.90;;;;;;5068343;28;19908;-79
2021/12/10 13:26:57;;;;;;;;;;;6.40;99.90;;;;;;5067262;28;19909;-79
2021/12/10 13:29:27;;;;;;;;;;;6.30;99.90;;;;;;5035047;28;19962;-79
2021/12/10 13:31:53;;;;;;;;;;;6.40;99.90;;;;;;5065753;28;19925;-79
2021/12/10 13:34:21;;;;;;;;;;;6.30;99.90;;;;;;5081101;28;19959;-79
2021/12/10 13:36:53;;;;;;;;;;;6.30;99.90;;;;;;5050509;28;19909;-80
2021/12/10 13:39:18;;;;;;;;;;;6.40;99.90;;;;;;5045580;28;20276;-79
2021/12/10 13:41:45;;;;;;;;;;;6.40;99.90;;;;;;5057804;28;19912;-80
2021/12/10 13:44:32;;;;;;;;;;;6.30;99.90;;;;;;5063452;28;20331;-80
2021/12/10 13:47:10;;;;;;;;;;;6.30;99.90;;;;;;5075139;28;20627;-80
2021/12/10 13:49:58;;;;;;;;;;;6.30;99.90;;;;;;5058422;28;20424;-80
2021/12/10 13:52:41;;;;;;;;;;;6.20;99.90;;;;;;5054882;28;19962;-80
2021/12/10 13:55:17;;;;;;;;;;;6.30;99.90;;;;;;5100094;28;19919;-80
2021/12/10 13:57:43;;;;;;;;;;;6.30;99.90;;;;;;5067765;28;19921;-80
2021/12/10 14:00:10;;;;;;;;;;;6.30;99.90;;;;;;5054658;28;19923;-80
2021/12/10 14:02:38;;;;;;;;;;;6.40;99.90;;;;;;5086313;28;20399;-80
2021/12/10 14:05:26;;;;;;;;;;;6.30;99.90;;;;;;5076093;28;20357;-80
2021/12/10 14:07:56;;;;;;;;;;;6.30;99.90;;;;;;5070008;28;20261;-80
2021/12/10 14:10:32;;;;;;;;;;;6.30;99.90;;;;;;5057585;28;20002;-80
2021/12/10 14:13:03;;;;;;;;;;;6.50;99.90;;;;;;5074199;28;19920;-80
2021/12/10 14:16:04;;;;;;;;;;;6.50;99.90;;;;;;5068776;28;19931;-80
2021/12/10 14:18:25;;;;;;;;;;;6.60;99.90;;;;;;5055466;28;20427;-80
2021/12/10 14:21:11;;;;;;;;;;;6.40;99.90;;;;;;5089936;28;19916;-80
2021/12/10 14:23:42;;;;;;;;;;;6.40;99.90;;;;;;5085220;28;19912;-80
2021/12/10 14:26:13;;;;;;;;;;;6.30;99.90;;;;;;5074329;28;19958;-80
2021/12/10 14:28:46;;;;;;;;;;;6.40;99.90;;;;;;5078055;28;19912;-80
2021/12/10 14:31:24;;;;;;;;;;;6.40;99.90;;;;;;5080816;28;19921;-80
2021/12/10 14:33:51;;;;;;;;;;;6.50;99.90;;;;;;5075126;28;20365;-80
2021/12/10 14:36:20;;;;;;;;;;;6.40;99.90;;;;;;5085824;28;19995;-80
2021/12/10 14:39:01;;;;;;;;;;;6.30;99.90;;;;;;5090104;28;19909;-80
2021/12/10 14:41:43;;;;;;;;;;;6.20;99.90;;;;;;5071740;28;19963;-79
2021/12/10 14:44:22;;;;;;;;;;;6.10;99.90;;;;;;5054694;28;20288;-80
2021/12/10 14:46:57;;;;;;;;;;;6.20;99.90;;;;;;5067944;28;19956;-80
2021/12/10 14:49:26;;;;;;;;;;;6.20;99.90;;;;;;5059071;28;19977;-80
2021/12/10 14:52:04;;;;;;;;;;;6.30;99.90;;;;;;5071751;28;19920;-79
2021/12/10 14:54:31;;;;;;;;;;;6.30;99.90;;;;;;5065256;28;19916;-80
2021/12/10 14:57:01;;;;;;;;;;;6.40;99.90;;;;;;5069500;28;20050;-79